Time;durP1;ratioP1;P1;durP2;ratioP2;P2;SDS_P1;SDS_P2;PMS_P1;PMS_P2;Temp;Humidity;BMP_temperature;BMP_pressure;BME280_temperature;BME280_humidity;BME280_pressure;Samples;Min_cycle;Max_cycle;Signal;HPM_P1;HPM_P2
2023/09/17 00:01:08;;;;;;;38.35;25.70;;;13.50;99.90;;;;;;5046444;28;20044;-64
2023/09/17 00:03:33;;;;;;;37.33;26.23;;;13.60;99.90;;;;;;5047535;28;20053;-64
2023/09/17 00:05:59;;;;;;;38.75;25.15;;;13.60;99.90;;;;;;5049910;28;20067;-64
2023/09/17 00:08:25;;;;;;;36.53;22.75;;;13.60;99.90;;;;;;5048153;28;20044;-64
2023/09/17 00:10:50;;;;;;;36.65;23.85;;;13.70;99.90;;;;;;5036161;28;20465;-64
2023/09/17 00:13:16;;;;;;;36.08;23.45;;;13.70;99.90;;;;;;5028165;28;20045;-64
2023/09/17 00:15:42;;;;;;;36.65;24.55;;;13.70;99.90;;;;;;5038427;28;20037;-66
2023/09/17 00:18:08;;;;;;;38.83;25.42;;;13.70;99.90;;;;;;5031077;28;20048;-64
2023/09/17 00:20:33;;;;;;;37.33;25.00;;;13.70;99.90;;;;;;5048298;28;20422;-64
2023/09/17 00:23:00;;;;;;;42.22;26.88;;;13.70;99.90;;;;;;5048086;28;20142;-63
2023/09/17 00:25:26;;;;;;;42.45;26.42;;;13.70;99.90;;;;;;5047169;28;20041;-64
2023/09/17 00:27:52;;;;;;;46.78;28.30;;;13.70;99.90;;;;;;5047846;28;20492;-64
2023/09/17 00:30:18;;;;;;;44.83;27.00;;;13.70;99.90;;;;;;5029461;28;20049;-64
2023/09/17 00:32:44;;;;;;;43.38;26.70;;;13.70;99.90;;;;;;5046820;28;20060;-64
2023/09/17 00:35:11;;;;;;;42.20;26.10;;;13.70;99.90;;;;;;5049174;28;20122;-64
2023/09/17 00:37:37;;;;;;;45.30;28.95;;;13.70;99.90;;;;;;5047782;28;20056;-63
2023/09/17 00:40:05;;;;;;;45.10;27.08;;;13.70;99.90;;;;;;5047489;28;20377;-64
2023/09/17 00:42:31;;;;;;;46.67;29.60;;;13.70;99.90;;;;;;5047864;28;20045;-64
2023/09/17 00:44:56;;;;;;;46.45;29.75;;;13.80;99.90;;;;;;5047696;28;20075;-64
2023/09/17 00:47:22;;;;;;;44.42;28.50;;;13.80;99.90;;;;;;5047877;28;20377;-64
2023/09/17 00:49:48;;;;;;;51.30;30.58;;;13.80;99.90;;;;;;5053326;28;20040;-64
2023/09/17 00:52:19;;;;;;;41.15;27.52;;;13.80;99.90;;;;;;5015688;28;20473;-64
2023/09/17 00:54:47;;;;;;;47.00;28.92;;;13.90;99.90;;;;;;5030722;28;20052;-64
2023/09/17 00:57:15;;;;;;;49.28;30.83;;;13.90;99.90;;;;;;5033225;28;20148;-65
2023/09/17 00:59:41;;;;;;;50.53;30.25;;;13.90;99.90;;;;;;5029610;28;20520;-64
2023/09/17 01:02:07;;;;;;;43.88;27.85;;;13.90;99.90;;;;;;5014845;28;20473;-64
2023/09/17 01:04:33;;;;;;;48.17;29.33;;;13.90;99.90;;;;;;5031766;28;20057;-64
2023/09/17 01:06:59;;;;;;;43.38;27.65;;;13.90;99.90;;;;;;5031695;28;20042;-64
2023/09/17 01:09:28;;;;;;;46.17;27.88;;;13.90;99.90;;;;;;5049753;28;20927;-64
2023/09/17 01:11:54;;;;;;;44.85;29.27;;;13.90;99.90;;;;;;5051413;28;20049;-65
2023/09/17 01:14:20;;;;;;;44.38;28.40;;;14.00;99.90;;;;;;5049168;28;20132;-64
2023/09/17 01:16:46;;;;;;;47.25;29.90;;;14.00;99.90;;;;;;5051239;28;20039;-64
2023/09/17 01:19:20;;;;;;;47.03;29.38;;;14.00;99.90;;;;;;5052540;28;20128;-64
2023/09/17 01:22:06;;;;;;;50.20;31.40;;;14.00;99.90;;;;;;5051646;28;20045;-64
2023/09/17 01:24:54;;;;;;;44.53;30.05;;;14.00;99.90;;;;;;5051703;28;20377;-64
2023/09/17 01:27:20;;;;;;;49.60;28.35;;;14.00;99.90;;;;;;5050604;28;20047;-64
2023/09/17 01:29:49;;;;;;;42.10;27.88;;;14.00;99.90;;;;;;5048415;28;20361;-64
2023/09/17 01:32:17;;;;;;;42.92;27.67;;;14.10;99.90;;;;;;5034184;28;20045;-64
2023/09/17 01:34:44;;;;;;;39.55;26.00;;;14.10;99.90;;;;;;5050680;28;20048;-63
2023/09/17 01:37:18;;;;;;;47.95;27.73;;;14.00;99.90;;;;;;5033387;28;20413;-64
2023/09/17 01:39:56;;;;;;;40.90;27.25;;;14.00;99.90;;;;;;5031811;28;20296;-64
2023/09/17 01:42:24;;;;;;;45.72;28.23;;;14.00;99.90;;;;;;5031128;28;20363;-64
2023/09/17 01:44:50;;;;;;;44.90;29.02;;;14.00;99.90;;;;;;5030470;28;20117;-64
2023/09/17 01:47:17;;;;;;;42.25;27.90;;;14.00;99.90;;;;;;5030187;28;20129;-64
2023/09/17 01:49:43;;;;;;;42.45;27.98;;;14.00;99.90;;;;;;5031010;28;20076;-64
2023/09/17 01:52:11;;;;;;;46.03;30.00;;;14.00;99.90;;;;;;5031328;28;20121;-63
2023/09/17 01:54:36;;;;;;;50.75;31.95;;;14.00;99.90;;;;;;5029490;28;20034;-64
2023/09/17 01:57:02;;;;;;;46.33;28.83;;;13.90;99.90;;;;;;5038568;28;20044;-64
2023/09/17 01:59:27;;;;;;;52.35;30.92;;;13.90;99.90;;;;;;5049433;28;20718;-63
2023/09/17 02:01:53;;;;;;;54.22;31.25;;;13.90;99.90;;;;;;5050279;28;20095;-64
2023/09/17 02:04:19;;;;;;;45.15;29.70;;;13.90;99.90;;;;;;5051917;28;20089;-63
2023/09/17 02:06:45;;;;;;;44.60;29.20;;;13.90;99.90;;;;;;5050662;28;20045;-64
2023/09/17 02:09:12;;;;;;;51.83;32.45;;;14.00;99.90;;;;;;5049595;28;20511;-64
2023/09/17 02:11:38;;;;;;;50.00;30.25;;;14.00;99.90;;;;;;5051837;28;20045;-64
2023/09/17 02:14:04;;;;;;;48.15;32.05;;;14.00;99.90;;;;;;5032544;28;20049;-64
2023/09/17 02:16:31;;;;;;;46.90;29.75;;;14.10;99.90;;;;;;5049581;28;20044;-64
2023/09/17 02:18:57;;;;;;;46.83;28.27;;;14.10;99.90;;;;;;5049786;28;20143;-64
2023/09/17 02:21:23;;;;;;;45.88;29.10;;;14.10;99.90;;;;;;5050507;28;20497;-64
2023/09/17 02:23:49;;;;;;;46.30;29.65;;;14.10;99.90;;;;;;5050114;28;20043;-64
2023/09/17 02:26:15;;;;;;;47.80;28.60;;;14.20;99.90;;;;;;5049782;28;20575;-63
2023/09/17 02:28:41;;;;;;;46.95;29.80;;;14.10;99.90;;;;;;5051067;28;20056;-64
2023/09/17 02:31:07;;;;;;;52.95;30.48;;;14.10;99.90;;;;;;5048225;28;20041;-64
2023/09/17 02:33:32;;;;;;;43.22;28.70;;;14.10;99.90;;;;;;5049346;28;20073;-64
2023/09/17 02:35:58;;;;;;;48.80;30.60;;;14.20;99.90;;;;;;5042499;28;20073;-64
2023/09/17 02:38:25;;;;;;;44.75;29.30;;;14.20;99.90;;;;;;5031375;28;20046;-64
2023/09/17 02:40:50;;;;;;;50.33;31.23;;;14.20;99.90;;;;;;5012939;28;20071;-64
2023/09/17 02:43:16;;;;;;;47.80;30.77;;;14.20;99.90;;;;;;5030113;28;20437;-65
2023/09/17 02:45:43;;;;;;;46.60;30.52;;;14.20;99.90;;;;;;5048061;28;20040;-64
2023/09/17 02:48:11;;;;;;;50.35;31.77;;;14.30;99.90;;;;;;5049048;28;20139;-64
2023/09/17 02:50:39;;;;;;;49.05;31.73;;;14.30;99.90;;;;;;5049315;28;20072;-64
2023/09/17 02:53:05;;;;;;;54.88;32.42;;;14.30;99.90;;;;;;5049676;28;20083;-64
2023/09/17 02:55:32;;;;;;;49.35;30.02;;;14.30;99.90;;;;;;5032536;28;20514;-64
2023/09/17 02:57:57;;;;;;;47.58;31.35;;;14.40;99.90;;;;;;5049967;28;20637;-64
2023/09/17 03:00:23;;;;;;;45.75;30.58;;;14.40;99.90;;;;;;5047578;28;20056;-63
2023/09/17 03:02:54;;;;;;;51.60;30.92;;;14.40;99.90;;;;;;5050380;28;20072;-64
2023/09/17 03:05:20;;;;;;;51.75;32.03;;;14.40;99.90;;;;;;5049462;28;20068;-64
2023/09/17 03:07:46;;;;;;;50.17;29.75;;;14.40;99.90;;;;;;5050624;28;20756;-64
2023/09/17 03:10:12;;;;;;;47.25;30.73;;;14.40;99.90;;;;;;5049416;28;20512;-64
2023/09/17 03:12:38;;;;;;;46.28;31.48;;;14.40;99.90;;;;;;5050765;28;20072;-64
2023/09/17 03:15:08;;;;;;;46.65;30.92;;;14.50;99.90;;;;;;5047359;28;20056;-64
2023/09/17 03:17:36;;;;;;;55.45;33.92;;;14.40;99.90;;;;;;5048515;28;20051;-64
2023/09/17 03:20:13;;;;;;;52.55;32.22;;;14.40;99.90;;;;;;5049196;28;20044;-64
2023/09/17 03:22:43;;;;;;;56.55;33.25;;;14.40;99.90;;;;;;5048413;28;20055;-65
2023/09/17 03:25:09;;;;;;;50.03;32.53;;;14.40;99.90;;;;;;5048484;28;20044;-64
2023/09/17 03:27:34;;;;;;;49.28;31.42;;;14.40;99.90;;;;;;5031434;28;20034;-64
2023/09/17 03:30:03;;;;;;;55.78;31.75;;;14.40;99.90;;;;;;5026451;28;20041;-64
2023/09/17 03:32:29;;;;;;;54.50;32.85;;;14.40;99.90;;;;;;5028556;28;20442;-64
2023/09/17 03:34:55;;;;;;;49.75;32.05;;;14.40;99.90;;;;;;5028666;28;20048;-64
2023/09/17 03:37:21;;;;;;;49.30;32.13;;;14.40;99.90;;;;;;5048012;28;20041;-64
2023/09/17 03:40:14;;;;;;;49.35;31.30;;;14.40;99.90;;;;;;5047548;28;20338;-64
2023/09/17 03:42:40;;;;;;;50.83;32.30;;;14.30;99.90;;;;;;5049010;28;20133;-64
2023/09/17 03:45:10;;;;;;;53.20;34.03;;;14.40;99.90;;;;;;5047983;28;20148;-64
2023/09/17 03:47:39;;;;;;;52.20;33.30;;;14.40;99.90;;;;;;5047761;28;20388;-64
2023/09/17 03:50:06;;;;;;;51.17;30.80;;;14.40;99.90;;;;;;5048848;28;20168;-64
2023/09/17 03:52:42;;;;;;;46.10;29.80;;;14.40;99.90;;;;;;5047844;28;20105;-64
2023/09/17 03:55:08;;;;;;;50.90;31.55;;;14.40;99.90;;;;;;5047882;28;20060;-64
2023/09/17 03:57:36;;;;;;;49.60;31.67;;;14.40;99.90;;;;;;5048030;28;20365;-64
2023/09/17 04:00:07;;;;;;;49.72;31.38;;;14.40;99.90;;;;;;5045994;28;20043;-64
2023/09/17 04:02:36;;;;;;;48.97;31.15;;;14.40;99.90;;;;;;5047641;28;20384;-64
2023/09/17 04:05:08;;;;;;;52.37;31.33;;;14.50;99.90;;;;;;5048879;28;20041;-64
2023/09/17 04:07:34;;;;;;;52.00;31.15;;;14.40;99.90;;;;;;5047914;28;20395;-64
2023/09/17 04:10:00;;;;;;;47.75;30.13;;;14.50;99.90;;;;;;5047713;28;20449;-64
2023/09/17 04:12:25;;;;;;;46.55;29.88;;;14.50;99.90;;;;;;5048653;28;20073;-63
2023/09/17 04:14:52;;;;;;;48.42;30.08;;;14.50;99.90;;;;;;5046535;28;20171;-64
2023/09/17 04:17:18;;;;;;;52.17;31.73;;;14.60;99.90;;;;;;5047284;28;20045;-64
2023/09/17 04:19:43;;;;;;;45.20;30.13;;;14.60;99.90;;;;;;5049997;28;20029;-64
2023/09/17 04:22:09;;;;;;;52.95;31.85;;;14.60;99.90;;;;;;5035495;28;20038;-64
2023/09/17 04:24:34;;;;;;;49.08;31.45;;;14.60;99.90;;;;;;5031150;28;20220;-64
2023/09/17 04:27:00;;;;;;;47.47;29.48;;;14.60;99.90;;;;;;5033812;28;20204;-64
2023/09/17 04:29:25;;;;;;;47.83;30.40;;;14.50;99.90;;;;;;5029889;28;20873;-64
2023/09/17 04:31:51;;;;;;;50.25;30.88;;;14.50;99.90;;;;;;5015834;28;20175;-64
2023/09/17 04:34:18;;;;;;;49.70;30.48;;;14.60;99.90;;;;;;5031860;28;20239;-65
2023/09/17 04:36:43;;;;;;;51.58;31.98;;;14.50;99.90;;;;;;5046439;28;20041;-64
2023/09/17 04:39:10;;;;;;;49.92;30.98;;;14.50;99.90;;;;;;5051153;28;20044;-64
2023/09/17 04:41:36;;;;;;;53.83;30.73;;;14.50;99.90;;;;;;5053836;28;20049;-64
2023/09/17 04:44:03;;;;;;;55.58;32.38;;;14.60;99.90;;;;;;5050730;28;20067;-64
2023/09/17 04:46:29;;;;;;;51.08;31.20;;;14.50;99.90;;;;;;5049872;28;20045;-64
2023/09/17 04:48:55;;;;;;;53.10;32.05;;;14.50;99.90;;;;;;5051504;28;20533;-63
2023/09/17 04:51:21;;;;;;;50.17;30.08;;;14.50;99.90;;;;;;5051851;28;20106;-64
2023/09/17 04:53:47;;;;;;;53.22;31.20;;;14.50;99.90;;;;;;5051637;28;20048;-65
2023/09/17 04:56:12;;;;;;;45.95;30.55;;;14.50;99.90;;;;;;5051070;28;20056;-64
2023/09/17 04:58:38;;;;;;;46.17;29.92;;;14.60;99.90;;;;;;5051692;28;20513;-64
2023/09/17 05:01:06;;;;;;;44.78;27.98;;;14.50;99.90;;;;;;5049335;28;20048;-64
2023/09/17 05:03:32;;;;;;;48.63;31.30;;;14.60;99.90;;;;;;5050416;28;20056;-65
2023/09/17 05:05:57;;;;;;;54.22;31.85;;;14.60;99.90;;;;;;5051858;28;20162;-64
2023/09/17 05:08:24;;;;;;;51.28;30.83;;;14.60;99.90;;;;;;5051271;28;20141;-64
2023/09/17 05:10:50;;;;;;;51.83;31.63;;;14.60;99.90;;;;;;5050991;28;20423;-64
2023/09/17 05:13:15;;;;;;;56.95;32.42;;;14.60;99.90;;;;;;5051462;28;20045;-64
2023/09/17 05:15:41;;;;;;;49.80;30.65;;;14.60;99.90;;;;;;5051109;28;20485;-64
2023/09/17 05:18:09;;;;;;;46.55;30.40;;;14.70;99.90;;;;;;5049835;28;20334;-63
2023/09/17 05:20:41;;;;;;;48.00;30.42;;;14.60;99.90;;;;;;5039142;28;20464;-64
2023/09/17 05:23:07;;;;;;;53.70;33.03;;;14.70;99.90;;;;;;5031238;28;20493;-64
2023/09/17 05:25:34;;;;;;;54.60;34.03;;;14.70;99.90;;;;;;5030433;28;20118;-65
2023/09/17 05:27:59;;;;;;;54.30;32.35;;;14.60;99.90;;;;;;5031989;28;20091;-64
2023/09/17 05:30:25;;;;;;;58.33;34.38;;;14.70;99.90;;;;;;5029316;28;20466;-64
2023/09/17 05:32:51;;;;;;;53.60;34.70;;;14.60;99.90;;;;;;5029912;28;20121;-64
2023/09/17 05:35:16;;;;;;;57.78;34.83;;;14.60;99.90;;;;;;5031181;28;20124;-64
2023/09/17 05:37:43;;;;;;;63.55;36.83;;;14.70;99.90;;;;;;5031228;28;20049;-65
2023/09/17 05:40:09;;;;;;;54.35;32.67;;;14.70;99.90;;;;;;5030555;28;20355;-64
2023/09/17 05:42:34;;;;;;;57.58;35.08;;;14.70;99.90;;;;;;5030988;28;20060;-64
2023/09/17 05:45:00;;;;;;;58.42;35.72;;;14.70;99.90;;;;;;5028905;28;20045;-64
2023/09/17 05:47:25;;;;;;;61.83;35.58;;;14.70;99.90;;;;;;5031269;28;20045;-64
2023/09/17 05:49:51;;;;;;;63.47;37.38;;;14.70;99.90;;;;;;5032593;28;20037;-64
2023/09/17 05:52:18;;;;;;;62.55;36.63;;;14.70;99.90;;;;;;5030486;28;20049;-64
2023/09/17 05:54:43;;;;;;;54.05;34.28;;;14.70;99.90;;;;;;5029482;28;20140;-65
2023/09/17 05:57:09;;;;;;;57.58;35.22;;;14.70;99.90;;;;;;5030813;28;20130;-65
2023/09/17 05:59:35;;;;;;;63.45;36.05;;;14.80;99.90;;;;;;5028592;28;20048;-66
2023/09/17 06:02:00;;;;;;;63.85;37.47;;;14.80;99.90;;;;;;5030420;28;20041;-66
2023/09/17 06:04:27;;;;;;;65.65;37.42;;;14.80;99.90;;;;;;5030128;28;20607;-66
2023/09/17 06:06:53;;;;;;;64.32;37.40;;;14.80;99.90;;;;;;5030262;28;20046;-66
2023/09/17 06:09:18;;;;;;;63.50;36.85;;;14.90;99.90;;;;;;5029636;28;20041;-66
2023/09/17 06:11:44;;;;;;;71.18;39.92;;;14.90;99.90;;;;;;5035197;28;20037;-66
2023/09/17 06:14:09;;;;;;;68.35;40.03;;;15.00;99.90;;;;;;5048637;28;20626;-66
2023/09/17 06:16:35;;;;;;;65.30;39.50;;;15.00;99.90;;;;;;5049388;28;20029;-66
2023/09/17 06:19:00;;;;;;;66.38;37.95;;;15.10;99.90;;;;;;5049618;28;20041;-66
2023/09/17 06:21:26;;;;;;;71.90;42.30;;;15.10;99.90;;;;;;5050414;28;20037;-66
2023/09/17 06:23:51;;;;;;;68.28;40.60;;;15.20;99.90;;;;;;5032880;28;20059;-66
2023/09/17 06:26:17;;;;;;;67.80;40.38;;;15.20;99.90;;;;;;5012989;28;20049;-66
2023/09/17 06:28:42;;;;;;;67.97;39.97;;;15.30;99.90;;;;;;5030218;28;20052;-66
2023/09/17 06:31:08;;;;;;;70.20;40.55;;;15.30;99.90;;;;;;5029580;28;20052;-66
2023/09/17 06:33:35;;;;;;;68.03;39.33;;;15.30;99.90;;;;;;5029463;28;20046;-66
2023/09/17 06:36:01;;;;;;;71.15;40.28;;;15.30;99.90;;;;;;5030260;28;20033;-67
2023/09/17 06:38:27;;;;;;;72.57;42.33;;;15.40;99.90;;;;;;5029468;28;20045;-66
2023/09/17 06:40:52;;;;;;;69.70;42.90;;;15.40;99.90;;;;;;5029245;28;20041;-66
2023/09/17 06:43:18;;;;;;;66.80;40.05;;;15.40;99.90;;;;;;5029894;28;20120;-66
2023/09/17 06:45:43;;;;;;;71.55;40.53;;;15.50;99.90;;;;;;5027010;28;20444;-66
2023/09/17 06:48:09;;;;;;;67.68;40.33;;;15.50;99.90;;;;;;5029207;28;20044;-66
2023/09/17 06:50:35;;;;;;;71.40;39.92;;;15.60;99.90;;;;;;5029947;28;20111;-69
2023/09/17 06:53:00;;;;;;;68.65;41.17;;;15.60;99.90;;;;;;5029960;28;20095;-66
2023/09/17 06:55:26;;;;;;;75.00;42.08;;;15.60;99.90;;;;;;5029110;28;20073;-66
2023/09/17 06:57:52;;;;;;;68.85;40.70;;;15.60;99.90;;;;;;5029828;28;20037;-66
2023/09/17 07:00:18;;;;;;;61.40;37.90;;;15.70;99.90;;;;;;5027471;28;20102;-66
2023/09/17 07:02:43;;;;;;;63.25;37.80;;;15.80;99.90;;;;;;5028838;28;20524;-66
2023/09/17 07:05:10;;;;;;;67.63;39.22;;;15.70;99.90;;;;;;5031492;28;20068;-66
2023/09/17 07:07:36;;;;;;;66.93;38.88;;;15.80;99.90;;;;;;5029179;28;20071;-66
2023/09/17 07:10:04;;;;;;;67.47;39.97;;;15.80;99.90;;;;;;5029113;28;20045;-66
2023/09/17 07:12:29;;;;;;;62.42;37.33;;;15.80;99.90;;;;;;5029305;28;20072;-66
2023/09/17 07:14:55;;;;;;;61.88;35.78;;;15.80;99.90;;;;;;5027405;28;20041;-66
2023/09/17 07:17:21;;;;;;;65.05;38.33;;;15.90;99.90;;;;;;5027776;28;20430;-66
2023/09/17 07:19:46;;;;;;;60.33;37.22;;;15.90;99.90;;;;;;5030913;28;20037;-66
2023/09/17 07:22:14;;;;;;;70.65;39.15;;;16.00;99.90;;;;;;5029309;28;20108;-66
2023/09/17 07:24:41;;;;;;;57.92;35.92;;;16.00;99.90;;;;;;5028304;28;20045;-66
2023/09/17 07:27:07;;;;;;;56.05;36.25;;;16.00;99.90;;;;;;5028529;28;20432;-67
2023/09/17 07:29:32;;;;;;;55.70;36.22;;;16.10;99.90;;;;;;5026996;28;20051;-66
2023/09/17 07:31:58;;;;;;;59.72;36.83;;;16.20;99.90;;;;;;5012616;28;20056;-66
2023/09/17 07:34:24;;;;;;;61.20;36.78;;;16.30;99.90;;;;;;5028897;28;20077;-66
2023/09/17 07:36:50;;;;;;;66.28;37.03;;;16.30;99.90;;;;;;5029292;28;20042;-66
2023/09/17 07:39:16;;;;;;;69.15;40.47;;;16.40;99.90;;;;;;5027748;28;20046;-66
2023/09/17 07:41:41;;;;;;;57.85;35.08;;;16.50;99.90;;;;;;5029582;28;20158;-66
2023/09/17 07:44:07;;;;;;;57.67;35.45;;;16.60;99.90;;;;;;5027428;28;20049;-70
2023/09/17 07:46:32;;;;;;;63.60;38.83;;;16.80;99.90;;;;;;5011780;28;20635;-66
2023/09/17 07:49:00;;;;;;;59.45;36.58;;;16.90;99.90;;;;;;5028215;28;20649;-66
2023/09/17 07:51:25;;;;;;;48.22;33.67;;;17.00;99.90;;;;;;5029062;28;20052;-66
2023/09/17 07:53:51;;;;;;;52.30;34.75;;;17.10;99.90;;;;;;5012303;28;20347;-66
2023/09/17 07:56:17;;;;;;;49.28;32.95;;;17.10;99.90;;;;;;5011422;28;20060;-66
2023/09/17 07:58:42;;;;;;;49.33;32.88;;;17.10;99.90;;;;;;5028489;28;24028;-66
2023/09/17 08:01:08;;;;;;;44.00;30.98;;;17.10;99.90;;;;;;5026487;28;20048;-66
2023/09/17 08:03:34;;;;;;;44.33;30.90;;;17.20;99.90;;;;;;5027981;28;20092;-66
2023/09/17 08:06:00;;;;;;;41.90;29.17;;;17.30;99.90;;;;;;5028981;28;20516;-65
2023/09/17 08:08:26;;;;;;;44.35;30.70;;;17.40;99.90;;;;;;5028181;28;20053;-65
2023/09/17 08:10:52;;;;;;;40.38;29.02;;;17.40;99.90;;;;;;5028113;28;20125;-65
2023/09/17 08:13:17;;;;;;;34.97;26.45;;;17.50;99.90;;;;;;5028410;28;20045;-66
2023/09/17 08:15:43;;;;;;;40.20;28.25;;;17.50;99.90;;;;;;5026638;28;20474;-66
2023/09/17 08:18:09;;;;;;;40.08;28.17;;;17.60;99.90;;;;;;5028101;28;20053;-66
2023/09/17 08:20:35;;;;;;;38.90;27.30;;;17.50;99.90;;;;;;5012298;28;20033;-65
2023/09/17 08:23:01;;;;;;;34.75;25.45;;;17.40;99.90;;;;;;5028578;28;20512;-66
2023/09/17 08:25:26;;;;;;;31.58;24.05;;;17.40;99.90;;;;;;5027972;28;20454;-65
2023/09/17 08:27:53;;;;;;;38.40;25.83;;;17.40;99.90;;;;;;5028529;28;20058;-66
2023/09/17 08:30:19;;;;;;;35.97;27.60;;;17.50;99.90;;;;;;5026253;28;20061;-65
2023/09/17 08:32:46;;;;;;;38.67;26.05;;;17.50;99.90;;;;;;5027735;28;20037;-65
2023/09/17 08:35:15;;;;;;;38.13;26.52;;;17.60;99.90;;;;;;5029910;28;20131;-66
2023/09/17 08:37:44;;;;;;;36.75;26.42;;;17.60;99.90;;;;;;5027986;28;20103;-66
2023/09/17 08:40:14;;;;;;;37.58;26.77;;;17.60;99.90;;;;;;5027896;28;20038;-66
2023/09/17 08:42:43;;;;;;;39.83;26.60;;;17.70;99.90;;;;;;5028638;28;20165;-66
2023/09/17 08:45:10;;;;;;;33.75;25.05;;;17.80;99.90;;;;;;5026505;28;20101;-66
2023/09/17 08:47:37;;;;;;;38.75;25.63;;;17.90;99.90;;;;;;5027575;28;20069;-66
2023/09/17 08:50:09;;;;;;;39.35;25.88;;;18.00;99.90;;;;;;5028325;28;20125;-65
2023/09/17 08:52:43;;;;;;;34.65;24.42;;;18.20;99.90;;;;;;5028292;28;20041;-66
2023/09/17 08:55:10;;;;;;;33.03;23.35;;;18.50;99.90;;;;;;5027588;28;20056;-66
2023/09/17 08:57:40;;;;;;;32.10;22.95;;;18.50;99.90;;;;;;5028310;28;20037;-65
2023/09/17 09:00:09;;;;;;;33.20;22.52;;;18.70;99.90;;;;;;5023924;28;20079;-65
2023/09/17 09:02:59;;;;;;;32.08;22.05;;;18.70;99.90;;;;;;5047034;28;20120;-66
2023/09/17 09:05:27;;;;;;;26.63;20.65;;;18.80;99.90;;;;;;5048227;28;20098;-66
2023/09/17 09:07:55;;;;;;;25.45;20.08;;;18.90;99.90;;;;;;5047587;28;20048;-66
2023/09/17 09:10:21;;;;;;;27.35;20.95;;;18.90;99.90;;;;;;5050940;28;20146;-65
2023/09/17 09:12:48;;;;;;;29.25;19.90;;;19.10;99.90;;;;;;5034947;28;20067;-66
2023/09/17 09:15:13;;;;;;;28.55;20.95;;;19.10;99.90;;;;;;5049371;28;20056;-65
2023/09/17 09:17:39;;;;;;;28.40;20.17;;;19.20;99.90;;;;;;5050706;28;20045;-66
2023/09/17 09:20:09;;;;;;;28.58;19.83;;;19.20;99.90;;;;;;5034408;28;20040;-66
2023/09/17 09:22:35;;;;;;;29.65;20.30;;;19.30;99.90;;;;;;5050719;28;20045;-65
2023/09/17 09:25:02;;;;;;;27.35;19.95;;;19.40;99.90;;;;;;5050713;28;20123;-66
2023/09/17 09:27:28;;;;;;;28.92;20.48;;;19.20;99.90;;;;;;5050549;28;20048;-66
2023/09/17 09:29:53;;;;;;;28.30;21.58;;;19.10;99.90;;;;;;5032668;28;20047;-66
2023/09/17 09:32:19;;;;;;;33.15;21.45;;;19.00;99.90;;;;;;5034081;28;20070;-65
2023/09/17 09:34:47;;;;;;;29.05;22.00;;;19.10;99.90;;;;;;5051259;28;20049;-66
2023/09/17 09:37:12;;;;;;;25.90;20.15;;;19.10;99.90;;;;;;5034485;28;20045;-65
2023/09/17 09:39:41;;;;;;;34.25;22.90;;;19.20;99.90;;;;;;5033321;28;20388;-65
2023/09/17 09:42:08;;;;;;;31.23;21.75;;;19.10;99.90;;;;;;5050826;28;20108;-65
2023/09/17 09:44:36;;;;;;;29.33;21.20;;;19.10;99.90;;;;;;5038985;28;20050;-65
2023/09/17 09:47:02;;;;;;;30.30;22.55;;;19.20;99.90;;;;;;5030726;28;20049;-66
2023/09/17 09:49:29;;;;;;;29.83;21.98;;;19.00;99.90;;;;;;5030579;28;20135;-65
2023/09/17 09:51:59;;;;;;;31.58;22.05;;;18.90;99.90;;;;;;5032727;28;20164;-65
2023/09/17 09:54:24;;;;;;;34.35;23.77;;;18.80;99.90;;;;;;5029636;28;20074;-66
2023/09/17 09:56:52;;;;;;;32.78;23.85;;;18.70;99.90;;;;;;5031404;28;20037;-65
2023/09/17 09:59:19;;;;;;;36.47;25.35;;;18.60;99.90;;;;;;5032789;28;20117;-67
2023/09/17 10:01:45;;;;;;;32.30;22.15;;;18.50;99.90;;;;;;5050409;28;20404;-66
2023/09/17 10:04:11;;;;;;;31.60;23.30;;;18.40;99.90;;;;;;5051413;28;20053;-66
2023/09/17 10:06:39;;;;;;;31.35;22.13;;;18.40;99.90;;;;;;5050596;28;20139;-66
2023/09/17 10:09:06;;;;;;;26.85;19.23;;;18.30;99.90;;;;;;5049632;28;20523;-66
2023/09/17 10:11:32;;;;;;;29.25;20.00;;;18.20;99.90;;;;;;5033719;28;20093;-66
2023/09/17 10:14:19;;;;;;;25.73;17.45;;;18.20;99.90;;;;;;5049771;28;20139;-66
2023/09/17 10:16:45;;;;;;;23.70;17.73;;;18.20;99.90;;;;;;5052054;28;20048;-66
2023/09/17 10:19:18;;;;;;;23.92;16.48;;;18.10;99.90;;;;;;5049861;28;20040;-66
2023/09/17 10:21:45;;;;;;;23.17;18.77;;;18.10;99.90;;;;;;5050758;28;20082;-65
2023/09/17 10:24:12;;;;;;;26.90;19.17;;;18.10;99.90;;;;;;5048647;28;20521;-66
2023/09/17 10:26:42;;;;;;;27.40;18.92;;;18.10;99.90;;;;;;5033763;28;20760;-65
2023/09/17 10:29:10;;;;;;;25.53;18.03;;;18.20;99.90;;;;;;5048522;28;20049;-66
2023/09/17 10:31:37;;;;;;;24.33;17.25;;;18.10;99.90;;;;;;5049590;28;20284;-66
2023/09/17 10:34:04;;;;;;;25.80;18.58;;;18.10;99.90;;;;;;5049374;28;20068;-66
2023/09/17 10:36:31;;;;;;;28.02;19.02;;;18.10;99.90;;;;;;5038137;28;20076;-66
2023/09/17 10:38:59;;;;;;;24.23;18.20;;;18.10;99.90;;;;;;5013184;28;20045;-67
2023/09/17 10:41:29;;;;;;;24.92;16.98;;;18.20;99.90;;;;;;5029487;28;20045;-66
2023/09/17 10:43:57;;;;;;;25.77;17.80;;;18.40;99.90;;;;;;5013023;28;20092;-66
2023/09/17 10:46:24;;;;;;;25.85;17.98;;;18.70;99.90;;;;;;5046691;28;20077;-67
2023/09/17 10:48:50;;;;;;;22.98;17.83;;;18.90;99.90;;;;;;5049062;28;20476;-66
2023/09/17 10:51:19;;;;;;;25.42;17.77;;;19.10;99.90;;;;;;5049753;28;20040;-66
2023/09/17 10:53:45;;;;;;;28.77;17.55;;;19.50;99.90;;;;;;5049483;28;20338;-65
2023/09/17 10:56:13;;;;;;;24.70;17.38;;;19.70;99.90;;;;;;5032376;28;20051;-66
2023/09/17 10:58:44;;;;;;;24.50;16.52;;;19.80;99.90;;;;;;5049596;28;20068;-66
2023/09/17 11:01:12;;;;;;;;;;;19.90;99.90;;;;;;5031265;28;20477;-66
2023/09/17 11:03:42;;;;;;;24.05;18.30;;;19.70;99.90;;;;;;5036608;28;20377;-66
2023/09/17 11:06:15;;;;;;;;;;;19.70;99.90;;;;;;5033736;28;20053;-66
2023/09/17 11:08:45;;;;;;;21.70;16.08;;;19.70;99.90;;;;;;5049261;28;20221;-66
2023/09/17 11:11:14;;;;;;;26.85;18.85;;;19.80;99.90;;;;;;5048716;28;20041;-66
2023/09/17 11:13:40;;;;;;;22.95;16.60;;;19.90;99.90;;;;;;5049077;28;20410;-66
2023/09/17 11:16:07;;;;;;;28.08;18.98;;;19.80;99.90;;;;;;5047222;28;20029;-66
2023/09/17 11:18:33;;;;;;;22.77;17.00;;;19.90;99.90;;;;;;5048355;28;20037;-66
2023/09/17 11:21:06;;;;;;;21.45;16.05;;;19.90;99.90;;;;;;5050285;28;20315;-66
2023/09/17 11:23:53;;;;;;;27.35;18.20;;;19.90;99.90;;;;;;5032783;28;20481;-66
2023/09/17 11:26:24;;;;;;;24.45;17.35;;;19.50;99.90;;;;;;5049817;28;20052;-66
2023/09/17 11:28:58;;;;;;;26.90;19.10;;;19.30;99.90;;;;;;5048778;28;20048;-66
2023/09/17 11:31:28;;;;;;;24.92;17.77;;;19.20;99.90;;;;;;5047742;28;20045;-66
2023/09/17 11:33:56;;;;;;;24.30;18.67;;;19.30;99.90;;;;;;5031758;28;20048;-66
2023/09/17 11:36:22;;;;;;;25.52;19.33;;;19.30;99.90;;;;;;5037053;28;20040;-66
2023/09/17 11:38:47;;;;;;;28.88;18.98;;;19.50;99.90;;;;;;5028382;28;20528;-66
2023/09/17 11:41:19;;;;;;;29.50;18.85;;;19.80;99.90;;;;;;5027970;28;20137;-68
2023/09/17 11:43:53;;;;;;;26.67;19.30;;;19.90;99.90;;;;;;5029279;28;20076;-69
2023/09/17 11:46:20;;;;;;;27.98;19.25;;;20.00;99.90;;;;;;5026919;28;20038;-66
2023/09/17 11:48:45;;;;;;;20.98;14.70;;;20.10;99.90;;;;;;5028150;28;20060;-66
2023/09/17 11:51:32;;;;;;;22.65;16.75;;;20.20;99.90;;;;;;5028822;28;20067;-67
2023/09/17 11:54:06;;;;;;;20.55;14.95;;;20.40;99.90;;;;;;5029799;28;20057;-66
2023/09/17 11:56:33;;;;;;;20.77;16.02;;;20.70;99.90;;;;;;5028665;28;20125;-66
2023/09/17 11:59:05;;;;;;;23.02;15.93;;;20.70;99.90;;;;;;5027316;28;20049;-68
2023/09/17 12:01:37;;;;;;;23.92;16.52;;;20.70;99.90;;;;;;5031236;28;20052;-66
2023/09/17 12:04:05;;;;;;;22.80;16.27;;;20.80;99.90;;;;;;5047927;28;20142;-67
2023/09/17 12:06:30;;;;;;;22.70;17.65;;;20.80;99.90;;;;;;5050224;28;20055;-67
2023/09/17 12:08:59;;;;;;;23.67;16.10;;;20.90;99.90;;;;;;5049276;28;20049;-68
2023/09/17 12:11:25;;;;;;;22.90;16.52;;;21.00;99.90;;;;;;5047900;28;20223;-67
2023/09/17 12:13:57;;;;;;;24.17;18.73;;;21.10;99.90;;;;;;5031401;28;20041;-66
2023/09/17 12:16:24;;;;;;;22.33;16.45;;;21.20;99.90;;;;;;5047141;28;20033;-67
2023/09/17 12:18:54;;;;;;;23.05;16.50;;;21.30;99.90;;;;;;5047381;28;20515;-66
2023/09/17 12:21:22;;;;;;;23.35;16.83;;;21.40;99.90;;;;;;5031876;28;20473;-66
2023/09/17 12:26:31;;;;;;;24.08;17.52;;;21.60;99.90;;;;;;5047871;28;20080;-67
2023/09/17 12:28:57;;;;;;;26.45;19.63;;;21.60;99.90;;;;;;5047748;28;20460;-67
2023/09/17 12:31:23;;;;;;;25.33;17.17;;;21.70;99.90;;;;;;5030399;28;20099;-67